sensor_id;sensor_type;location;lat;lon;timestamp;P1;durP1;ratioP1;P2;durP2;ratioP2
52320;SDS011;38261;54.090;13.382;2024-01-30T00:01:20;3.70;;;2.80;;
52320;SDS011;38261;54.090;13.382;2024-01-30T00:02:42;4.63;;;3.00;;
52320;SDS011;38261;54.090;13.382;2024-01-30T00:04:04;6.47;;;3.30;;
52320;SDS011;38261;54.090;13.382;2024-01-30T00:05:27;6.10;;;3.37;;
52320;SDS011;38261;54.090;13.382;2024-01-30T00:06:50;4.17;;;3.20;;
52320;SDS011;38261;54.090;13.382;2024-01-30T00:08:12;8.50;;;3.27;;
52320;SDS011;38261;54.090;13.382;2024-01-30T00:09:35;4.57;;;3.10;;
52320;SDS011;38261;54.090;13.382;2024-01-30T00:10:57;2.83;;;2.57;;
52320;SDS011;38261;54.090;13.382;2024-01-30T00:12:19;5.20;;;3.07;;
52320;SDS011;38261;54.090;13.382;2024-01-30T00:13:41;4.60;;;3.30;;
52320;SDS011;38261;54.090;13.382;2024-01-30T00:15:03;5.10;;;3.57;;
52320;SDS011;38261;54.090;13.382;2024-01-30T00:16:26;3.40;;;2.30;;
52320;SDS011;38261;54.090;13.382;2024-01-30T00:17:49;7.03;;;2.93;;
52320;SDS011;38261;54.090;13.382;2024-01-30T00:19:13;4.90;;;3.10;;
52320;SDS011;38261;54.090;13.382;2024-01-30T00:20:35;5.10;;;3.20;;
52320;SDS011;38261;54.090;13.382;2024-01-30T00:21:58;5.03;;;3.30;;
52320;SDS011;38261;54.090;13.382;2024-01-30T00:23:20;7.10;;;3.50;;
52320;SDS011;38261;54.090;13.382;2024-01-30T00:24:42;3.67;;;3.33;;
52320;SDS011;38261;54.090;13.382;2024-01-30T00:26:04;6.10;;;3.50;;
52320;SDS011;38261;54.090;13.382;2024-01-30T00:27:27;7.93;;;3.23;;
52320;SDS011;38261;54.090;13.382;2024-01-30T00:28:49;4.83;;;3.57;;
52320;SDS011;38261;54.090;13.382;2024-01-30T00:30:11;7.07;;;2.67;;
52320;SDS011;38261;54.090;13.382;2024-01-30T00:31:34;5.10;;;3.40;;
52320;SDS011;38261;54.090;13.382;2024-01-30T00:33:00;5.43;;;3.30;;
52320;SDS011;38261;54.090;13.382;2024-01-30T00:34:23;4.57;;;2.80;;
52320;SDS011;38261;54.090;13.382;2024-01-30T00:35:45;10.67;;;3.93;;
52320;SDS011;38261;54.090;13.382;2024-01-30T00:37:07;4.23;;;3.13;;
52320;SDS011;38261;54.090;13.382;2024-01-30T00:38:29;3.63;;;2.60;;
52320;SDS011;38261;54.090;13.382;2024-01-30T00:39:51;4.63;;;3.10;;
52320;SDS011;38261;54.090;13.382;2024-01-30T00:41:14;5.50;;;3.40;;
52320;SDS011;38261;54.090;13.382;2024-01-30T00:42:38;5.47;;;3.00;;
52320;SDS011;38261;54.090;13.382;2024-01-30T00:44:01;9.47;;;3.67;;
52320;SDS011;38261;54.090;13.382;2024-01-30T00:45:23;3.67;;;3.30;;
52320;SDS011;38261;54.090;13.382;2024-01-30T00:46:45;7.47;;;3.07;;
52320;SDS011;38261;54.090;13.382;2024-01-30T00:48:07;6.27;;;3.60;;
52320;SDS011;38261;54.090;13.382;2024-01-30T00:49:30;4.87;;;3.30;;
52320;SDS011;38261;54.090;13.382;2024-01-30T00:50:52;7.50;;;3.63;;
52320;SDS011;38261;54.090;13.382;2024-01-30T00:52:14;6.67;;;3.50;;
52320;SDS011;38261;54.090;13.382;2024-01-30T00:53:37;8.20;;;3.93;;
52320;SDS011;38261;54.090;13.382;2024-01-30T00:54:59;6.80;;;3.73;;
52320;SDS011;38261;54.090;13.382;2024-01-30T00:56:21;8.67;;;3.40;;
52320;SDS011;38261;54.090;13.382;2024-01-30T00:57:45;4.87;;;3.13;;
52320;SDS011;38261;54.090;13.382;2024-01-30T00:59:08;4.50;;;3.33;;
52320;SDS011;38261;54.090;13.382;2024-01-30T01:00:31;9.43;;;3.43;;
52320;SDS011;38261;54.090;13.382;2024-01-30T01:01:54;5.07;;;3.70;;
52320;SDS011;38261;54.090;13.382;2024-01-30T01:03:16;5.80;;;3.50;;
52320;SDS011;38261;54.090;13.382;2024-01-30T01:04:38;5.00;;;3.20;;
52320;SDS011;38261;54.090;13.382;2024-01-30T01:06:00;6.57;;;3.30;;
52320;SDS011;38261;54.090;13.382;2024-01-30T01:07:22;6.23;;;4.03;;
52320;SDS011;38261;54.090;13.382;2024-01-30T01:08:45;4.40;;;2.97;;
52320;SDS011;38261;54.090;13.382;2024-01-30T01:10:07;7.37;;;3.07;;
52320;SDS011;38261;54.090;13.382;2024-01-30T01:11:30;4.63;;;3.50;;
52320;SDS011;38261;54.090;13.382;2024-01-30T01:12:53;3.50;;;3.20;;
52320;SDS011;38261;54.090;13.382;2024-01-30T01:14:15;13.63;;;4.00;;
52320;SDS011;38261;54.090;13.382;2024-01-30T01:15:37;5.30;;;3.03;;
52320;SDS011;38261;54.090;13.382;2024-01-30T01:16:59;4.87;;;3.60;;
52320;SDS011;38261;54.090;13.382;2024-01-30T01:18:21;6.20;;;3.07;;
52320;SDS011;38261;54.090;13.382;2024-01-30T01:19:44;4.47;;;3.40;;
52320;SDS011;38261;54.090;13.382;2024-01-30T01:21:06;6.07;;;3.30;;
52320;SDS011;38261;54.090;13.382;2024-01-30T01:22:28;6.50;;;3.57;;
52320;SDS011;38261;54.090;13.382;2024-01-30T01:23:50;6.57;;;3.80;;
52320;SDS011;38261;54.090;13.382;2024-01-30T01:25:13;6.73;;;3.83;;
52320;SDS011;38261;54.090;13.382;2024-01-30T01:26:35;5.70;;;3.60;;
52320;SDS011;38261;54.090;13.382;2024-01-30T01:27:57;5.47;;;3.30;;
52320;SDS011;38261;54.090;13.382;2024-01-30T01:29:19;4.87;;;3.53;;
52320;SDS011;38261;54.090;13.382;2024-01-30T01:30:42;7.57;;;3.50;;
52320;SDS011;38261;54.090;13.382;2024-01-30T01:32:04;5.83;;;3.53;;
52320;SDS011;38261;54.090;13.382;2024-01-30T01:33:27;7.80;;;3.57;;
52320;SDS011;38261;54.090;13.382;2024-01-30T01:34:49;7.00;;;3.47;;
52320;SDS011;38261;54.090;13.382;2024-01-30T01:36:13;6.80;;;3.60;;
52320;SDS011;38261;54.090;13.382;2024-01-30T01:37:35;9.23;;;3.83;;
52320;SDS011;38261;54.090;13.382;2024-01-30T01:38:57;4.27;;;3.20;;
52320;SDS011;38261;54.090;13.382;2024-01-30T01:40:20;7.33;;;3.90;;
52320;SDS011;38261;54.090;13.382;2024-01-30T01:41:46;9.40;;;3.80;;
52320;SDS011;38261;54.090;13.382;2024-01-30T01:43:08;4.07;;;3.00;;
52320;SDS011;38261;54.090;13.382;2024-01-30T01:44:31;6.83;;;3.67;;
52320;SDS011;38261;54.090;13.382;2024-01-30T01:45:53;4.40;;;3.47;;
52320;SDS011;38261;54.090;13.382;2024-01-30T01:47:15;5.33;;;3.73;;
52320;SDS011;38261;54.090;13.382;2024-01-30T01:48:37;5.17;;;3.57;;
52320;SDS011;38261;54.090;13.382;2024-01-30T01:50:01;6.23;;;3.80;;
52320;SDS011;38261;54.090;13.382;2024-01-30T01:51:26;5.07;;;3.70;;
52320;SDS011;38261;54.090;13.382;2024-01-30T01:52:50;6.17;;;3.67;;
52320;SDS011;38261;54.090;13.382;2024-01-30T01:54:14;5.90;;;3.40;;
52320;SDS011;38261;54.090;13.382;2024-01-30T01:55:37;4.17;;;3.20;;
52320;SDS011;38261;54.090;13.382;2024-01-30T01:56:59;6.23;;;3.80;;
52320;SDS011;38261;54.090;13.382;2024-01-30T01:58:21;3.87;;;2.87;;
52320;SDS011;38261;54.090;13.382;2024-01-30T01:59:45;7.83;;;3.87;;
52320;SDS011;38261;54.090;13.382;2024-01-30T02:01:07;8.70;;;3.97;;
52320;SDS011;38261;54.090;13.382;2024-01-30T02:02:30;4.83;;;3.37;;
52320;SDS011;38261;54.090;13.382;2024-01-30T02:03:55;7.80;;;4.13;;
52320;SDS011;38261;54.090;13.382;2024-01-30T02:05:17;6.00;;;3.97;;
52320;SDS011;38261;54.090;13.382;2024-01-30T02:06:40;7.27;;;4.00;;
52320;SDS011;38261;54.090;13.382;2024-01-30T02:08:03;7.40;;;4.30;;
52320;SDS011;38261;54.090;13.382;2024-01-30T02:09:25;7.27;;;4.37;;
52320;SDS011;38261;54.090;13.382;2024-01-30T02:10:48;7.10;;;4.33;;
52320;SDS011;38261;54.090;13.382;2024-01-30T02:12:10;6.73;;;4.23;;
52320;SDS011;38261;54.090;13.382;2024-01-30T02:13:32;7.40;;;4.17;;
52320;SDS011;38261;54.090;13.382;2024-01-30T02:14:54;6.70;;;4.10;;
52320;SDS011;38261;54.090;13.382;2024-01-30T02:16:17;5.57;;;4.00;;
52320;SDS011;38261;54.090;13.382;2024-01-30T02:17:39;5.60;;;3.90;;
52320;SDS011;38261;54.090;13.382;2024-01-30T02:19:01;5.17;;;3.57;;
52320;SDS011;38261;54.090;13.382;2024-01-30T02:20:24;8.50;;;3.63;;
52320;SDS011;38261;54.090;13.382;2024-01-30T02:21:49;4.77;;;3.73;;
52320;SDS011;38261;54.090;13.382;2024-01-30T02:23:12;7.63;;;3.90;;
52320;SDS011;38261;54.090;13.382;2024-01-30T02:24:34;9.53;;;3.50;;
52320;SDS011;38261;54.090;13.382;2024-01-30T02:25:56;5.50;;;3.90;;
52320;SDS011;38261;54.090;13.382;2024-01-30T02:27:18;8.37;;;4.20;;
52320;SDS011;38261;54.090;13.382;2024-01-30T02:28:40;6.80;;;4.33;;
52320;SDS011;38261;54.090;13.382;2024-01-30T02:30:03;5.33;;;4.13;;
52320;SDS011;38261;54.090;13.382;2024-01-30T02:31:25;9.53;;;3.83;;
52320;SDS011;38261;54.090;13.382;2024-01-30T02:32:48;9.60;;;4.40;;
52320;SDS011;38261;54.090;13.382;2024-01-30T02:34:10;5.57;;;3.87;;
52320;SDS011;38261;54.090;13.382;2024-01-30T02:35:32;9.33;;;4.10;;
52320;SDS011;38261;54.090;13.382;2024-01-30T02:36:55;7.87;;;4.47;;
52320;SDS011;38261;54.090;13.382;2024-01-30T02:38:17;7.43;;;4.17;;
52320;SDS011;38261;54.090;13.382;2024-01-30T02:39:40;6.30;;;4.07;;
52320;SDS011;38261;54.090;13.382;2024-01-30T02:41:02;4.40;;;3.37;;
52320;SDS011;38261;54.090;13.382;2024-01-30T02:42:24;8.07;;;3.87;;
52320;SDS011;38261;54.090;13.382;2024-01-30T02:43:46;6.57;;;4.23;;
52320;SDS011;38261;54.090;13.382;2024-01-30T02:45:09;5.80;;;3.60;;
52320;SDS011;38261;54.090;13.382;2024-01-30T02:46:32;6.00;;;3.93;;
52320;SDS011;38261;54.090;13.382;2024-01-30T02:47:54;9.70;;;4.70;;
52320;SDS011;38261;54.090;13.382;2024-01-30T02:49:16;12.53;;;4.80;;
52320;SDS011;38261;54.090;13.382;2024-01-30T02:50:38;8.93;;;4.53;;
52320;SDS011;38261;54.090;13.382;2024-01-30T02:52:00;7.63;;;4.47;;
52320;SDS011;38261;54.090;13.382;2024-01-30T02:53:22;6.70;;;4.43;;
52320;SDS011;38261;54.090;13.382;2024-01-30T02:54:44;6.53;;;4.43;;
52320;SDS011;38261;54.090;13.382;2024-01-30T02:56:07;6.13;;;4.20;;
52320;SDS011;38261;54.090;13.382;2024-01-30T02:57:31;8.60;;;4.90;;
52320;SDS011;38261;54.090;13.382;2024-01-30T02:58:53;7.70;;;4.53;;
52320;SDS011;38261;54.090;13.382;2024-01-30T03:00:15;5.40;;;4.10;;
52320;SDS011;38261;54.090;13.382;2024-01-30T03:01:44;9.70;;;4.30;;
52320;SDS011;38261;54.090;13.382;2024-01-30T03:03:06;5.63;;;3.80;;
52320;SDS011;38261;54.090;13.382;2024-01-30T03:04:28;7.47;;;4.17;;
52320;SDS011;38261;54.090;13.382;2024-01-30T03:05:52;6.30;;;3.90;;
52320;SDS011;38261;54.090;13.382;2024-01-30T03:07:14;12.30;;;4.27;;
52320;SDS011;38261;54.090;13.382;2024-01-30T03:08:36;5.70;;;3.57;;
52320;SDS011;38261;54.090;13.382;2024-01-30T03:09:58;5.03;;;3.43;;
52320;SDS011;38261;54.090;13.382;2024-01-30T03:11:21;6.40;;;4.77;;
52320;SDS011;38261;54.090;13.382;2024-01-30T03:12:43;8.40;;;4.07;;
52320;SDS011;38261;54.090;13.382;2024-01-30T03:14:05;8.40;;;3.60;;
52320;SDS011;38261;54.090;13.382;2024-01-30T03:15:27;7.60;;;4.20;;
52320;SDS011;38261;54.090;13.382;2024-01-30T03:16:49;10.20;;;4.60;;
52320;SDS011;38261;54.090;13.382;2024-01-30T03:18:12;6.73;;;3.97;;
52320;SDS011;38261;54.090;13.382;2024-01-30T03:19:34;6.33;;;4.20;;
52320;SDS011;38261;54.090;13.382;2024-01-30T03:20:56;6.07;;;4.20;;
52320;SDS011;38261;54.090;13.382;2024-01-30T03:22:18;7.97;;;4.20;;
52320;SDS011;38261;54.090;13.382;2024-01-30T03:23:41;8.70;;;3.57;;
52320;SDS011;38261;54.090;13.382;2024-01-30T03:25:03;9.13;;;4.10;;
52320;SDS011;38261;54.090;13.382;2024-01-30T03:26:25;5.37;;;3.90;;
52320;SDS011;38261;54.090;13.382;2024-01-30T03:27:48;7.97;;;3.90;;
52320;SDS011;38261;54.090;13.382;2024-01-30T03:29:10;10.37;;;4.47;;
52320;SDS011;38261;54.090;13.382;2024-01-30T03:30:34;7.87;;;4.00;;
52320;SDS011;38261;54.090;13.382;2024-01-30T03:31:56;8.83;;;4.00;;
52320;SDS011;38261;54.090;13.382;2024-01-30T03:33:18;7.53;;;3.80;;
52320;SDS011;38261;54.090;13.382;2024-01-30T03:34:40;6.60;;;4.00;;
52320;SDS011;38261;54.090;13.382;2024-01-30T03:36:03;5.70;;;3.90;;
52320;SDS011;38261;54.090;13.382;2024-01-30T03:37:26;6.60;;;4.30;;
52320;SDS011;38261;54.090;13.382;2024-01-30T03:38:48;5.53;;;3.90;;
52320;SDS011;38261;54.090;13.382;2024-01-30T03:40:10;6.47;;;3.93;;
52320;SDS011;38261;54.090;13.382;2024-01-30T03:41:33;4.03;;;3.20;;
52320;SDS011;38261;54.090;13.382;2024-01-30T03:42:55;7.40;;;4.10;;
52320;SDS011;38261;54.090;13.382;2024-01-30T03:44:17;7.30;;;4.60;;
52320;SDS011;38261;54.090;13.382;2024-01-30T03:45:40;5.90;;;4.57;;
52320;SDS011;38261;54.090;13.382;2024-01-30T03:47:02;6.43;;;4.63;;
52320;SDS011;38261;54.090;13.382;2024-01-30T03:48:24;6.27;;;4.07;;
52320;SDS011;38261;54.090;13.382;2024-01-30T03:49:47;6.17;;;4.50;;
52320;SDS011;38261;54.090;13.382;2024-01-30T03:51:09;7.30;;;4.03;;
52320;SDS011;38261;54.090;13.382;2024-01-30T03:52:36;5.60;;;3.77;;
52320;SDS011;38261;54.090;13.382;2024-01-30T03:53:58;5.47;;;4.07;;
52320;SDS011;38261;54.090;13.382;2024-01-30T03:55:20;6.30;;;4.50;;
52320;SDS011;38261;54.090;13.382;2024-01-30T03:56:42;6.83;;;4.30;;
52320;SDS011;38261;54.090;13.382;2024-01-30T03:58:05;7.53;;;4.10;;
52320;SDS011;38261;54.090;13.382;2024-01-30T03:59:27;9.30;;;5.80;;
52320;SDS011;38261;54.090;13.382;2024-01-30T04:00:49;7.10;;;5.20;;
52320;SDS011;38261;54.090;13.382;2024-01-30T04:02:12;9.97;;;5.10;;
52320;SDS011;38261;54.090;13.382;2024-01-30T04:03:34;7.63;;;5.00;;
52320;SDS011;38261;54.090;13.382;2024-01-30T04:04:56;8.00;;;4.87;;
52320;SDS011;38261;54.090;13.382;2024-01-30T04:06:19;7.57;;;4.30;;
52320;SDS011;38261;54.090;13.382;2024-01-30T04:07:41;7.57;;;3.90;;
52320;SDS011;38261;54.090;13.382;2024-01-30T04:09:03;9.60;;;4.87;;
52320;SDS011;38261;54.090;13.382;2024-01-30T04:10:25;6.93;;;4.60;;
52320;SDS011;38261;54.090;13.382;2024-01-30T04:11:47;6.60;;;3.97;;
52320;SDS011;38261;54.090;13.382;2024-01-30T04:13:10;6.63;;;4.50;;
52320;SDS011;38261;54.090;13.382;2024-01-30T04:14:33;7.13;;;4.40;;
52320;SDS011;38261;54.090;13.382;2024-01-30T04:15:55;13.27;;;5.07;;
52320;SDS011;38261;54.090;13.382;2024-01-30T04:17:18;8.80;;;5.10;;
52320;SDS011;38261;54.090;13.382;2024-01-30T04:18:40;5.77;;;4.00;;
52320;SDS011;38261;54.090;13.382;2024-01-30T04:20:02;7.20;;;4.80;;
52320;SDS011;38261;54.090;13.382;2024-01-30T04:21:25;7.20;;;4.67;;
52320;SDS011;38261;54.090;13.382;2024-01-30T04:22:47;7.10;;;4.30;;
52320;SDS011;38261;54.090;13.382;2024-01-30T04:24:09;6.03;;;4.30;;
52320;SDS011;38261;54.090;13.382;2024-01-30T04:25:31;6.33;;;4.17;;
52320;SDS011;38261;54.090;13.382;2024-01-30T04:26:54;6.77;;;4.20;;
52320;SDS011;38261;54.090;13.382;2024-01-30T04:28:16;6.63;;;4.13;;
52320;SDS011;38261;54.090;13.382;2024-01-30T04:29:38;5.83;;;3.93;;
52320;SDS011;38261;54.090;13.382;2024-01-30T04:31:00;7.10;;;4.73;;
52320;SDS011;38261;54.090;13.382;2024-01-30T04:32:22;5.60;;;4.23;;
52320;SDS011;38261;54.090;13.382;2024-01-30T04:33:44;10.60;;;4.73;;
52320;SDS011;38261;54.090;13.382;2024-01-30T04:35:07;9.50;;;5.47;;
52320;SDS011;38261;54.090;13.382;2024-01-30T04:36:32;7.37;;;5.33;;
52320;SDS011;38261;54.090;13.382;2024-01-30T04:37:54;8.57;;;5.40;;
52320;SDS011;38261;54.090;13.382;2024-01-30T04:39:17;9.30;;;5.77;;
52320;SDS011;38261;54.090;13.382;2024-01-30T04:40:39;13.40;;;7.60;;
52320;SDS011;38261;54.090;13.382;2024-01-30T04:42:01;11.90;;;6.00;;
52320;SDS011;38261;54.090;13.382;2024-01-30T04:43:24;11.03;;;6.00;;
52320;SDS011;38261;54.090;13.382;2024-01-30T04:44:48;11.23;;;6.10;;
52320;SDS011;38261;54.090;13.382;2024-01-30T04:46:11;13.60;;;6.83;;
52320;SDS011;38261;54.090;13.382;2024-01-30T04:47:33;12.67;;;6.80;;
52320;SDS011;38261;54.090;13.382;2024-01-30T04:48:55;10.67;;;6.47;;
52320;SDS011;38261;54.090;13.382;2024-01-30T04:50:17;12.40;;;6.00;;
52320;SDS011;38261;54.090;13.382;2024-01-30T04:51:40;9.73;;;5.60;;
52320;SDS011;38261;54.090;13.382;2024-01-30T04:53:02;8.77;;;5.40;;
52320;SDS011;38261;54.090;13.382;2024-01-30T04:54:25;7.80;;;5.00;;
52320;SDS011;38261;54.090;13.382;2024-01-30T04:55:47;6.37;;;4.87;;
52320;SDS011;38261;54.090;13.382;2024-01-30T04:57:09;7.10;;;5.10;;
52320;SDS011;38261;54.090;13.382;2024-01-30T04:58:33;7.90;;;4.43;;
52320;SDS011;38261;54.090;13.382;2024-01-30T04:59:55;8.70;;;5.13;;
52320;SDS011;38261;54.090;13.382;2024-01-30T05:01:17;8.93;;;4.90;;
52320;SDS011;38261;54.090;13.382;2024-01-30T05:02:40;8.20;;;4.77;;
52320;SDS011;38261;54.090;13.382;2024-01-30T05:04:02;8.00;;;4.70;;
52320;SDS011;38261;54.090;13.382;2024-01-30T05:05:25;9.57;;;4.80;;
52320;SDS011;38261;54.090;13.382;2024-01-30T05:06:47;8.07;;;5.13;;
52320;SDS011;38261;54.090;13.382;2024-01-30T05:08:09;12.10;;;4.40;;
52320;SDS011;38261;54.090;13.382;2024-01-30T05:09:31;7.53;;;5.17;;
52320;SDS011;38261;54.090;13.382;2024-01-30T05:10:54;7.70;;;4.90;;
52320;SDS011;38261;54.090;13.382;2024-01-30T05:12:16;10.97;;;6.00;;
52320;SDS011;38261;54.090;13.382;2024-01-30T05:13:38;11.30;;;5.57;;
52320;SDS011;38261;54.090;13.382;2024-01-30T05:15:00;8.00;;;5.03;;
52320;SDS011;38261;54.090;13.382;2024-01-30T05:16:23;8.53;;;5.30;;
52320;SDS011;38261;54.090;13.382;2024-01-30T05:17:45;7.90;;;5.37;;
52320;SDS011;38261;54.090;13.382;2024-01-30T05:19:07;9.17;;;5.03;;
52320;SDS011;38261;54.090;13.382;2024-01-30T05:20:30;9.53;;;5.03;;
52320;SDS011;38261;54.090;13.382;2024-01-30T05:21:52;12.40;;;5.90;;
52320;SDS011;38261;54.090;13.382;2024-01-30T05:23:14;8.73;;;5.60;;
52320;SDS011;38261;54.090;13.382;2024-01-30T05:24:36;11.60;;;6.47;;
52320;SDS011;38261;54.090;13.382;2024-01-30T05:25:59;13.07;;;6.47;;
52320;SDS011;38261;54.090;13.382;2024-01-30T05:27:22;10.73;;;5.70;;
52320;SDS011;38261;54.090;13.382;2024-01-30T05:28:44;8.53;;;6.00;;
52320;SDS011;38261;54.090;13.382;2024-01-30T05:30:07;8.20;;;5.53;;
52320;SDS011;38261;54.090;13.382;2024-01-30T05:31:30;9.80;;;5.53;;
52320;SDS011;38261;54.090;13.382;2024-01-30T05:32:52;11.40;;;5.77;;
52320;SDS011;38261;54.090;13.382;2024-01-30T05:34:15;7.90;;;4.83;;
52320;SDS011;38261;54.090;13.382;2024-01-30T05:35:38;11.70;;;5.37;;
52320;SDS011;38261;54.090;13.382;2024-01-30T05:37:00;8.00;;;5.27;;
52320;SDS011;38261;54.090;13.382;2024-01-30T05:38:22;7.87;;;5.43;;
52320;SDS011;38261;54.090;13.382;2024-01-30T05:39:44;11.47;;;5.77;;
52320;SDS011;38261;54.090;13.382;2024-01-30T05:41:07;10.10;;;5.27;;
52320;SDS011;38261;54.090;13.382;2024-01-30T05:42:30;11.80;;;4.83;;
52320;SDS011;38261;54.090;13.382;2024-01-30T05:43:52;8.37;;;5.30;;
52320;SDS011;38261;54.090;13.382;2024-01-30T05:45:14;8.70;;;6.00;;
52320;SDS011;38261;54.090;13.382;2024-01-30T05:46:36;12.17;;;5.97;;
52320;SDS011;38261;54.090;13.382;2024-01-30T05:47:58;10.67;;;5.60;;
52320;SDS011;38261;54.090;13.382;2024-01-30T05:49:21;10.93;;;5.70;;
52320;SDS011;38261;54.090;13.382;2024-01-30T05:50:43;11.20;;;5.30;;
52320;SDS011;38261;54.090;13.382;2024-01-30T05:52:06;9.10;;;5.50;;
52320;SDS011;38261;54.090;13.382;2024-01-30T05:53:29;15.60;;;5.77;;
52320;SDS011;38261;54.090;13.382;2024-01-30T05:54:51;10.83;;;5.63;;
52320;SDS011;38261;54.090;13.382;2024-01-30T05:56:13;11.27;;;5.73;;
52320;SDS011;38261;54.090;13.382;2024-01-30T05:57:37;11.70;;;6.97;;
52320;SDS011;38261;54.090;13.382;2024-01-30T05:58:59;9.50;;;5.27;;
52320;SDS011;38261;54.090;13.382;2024-01-30T06:00:21;8.17;;;5.47;;
52320;SDS011;38261;54.090;13.382;2024-01-30T06:01:46;9.87;;;5.80;;
52320;SDS011;38261;54.090;13.382;2024-01-30T06:03:10;14.53;;;7.10;;
52320;SDS011;38261;54.090;13.382;2024-01-30T06:04:32;12.43;;;5.90;;
52320;SDS011;38261;54.090;13.382;2024-01-30T06:05:54;6.70;;;4.90;;
52320;SDS011;38261;54.090;13.382;2024-01-30T06:07:16;12.30;;;5.37;;
52320;SDS011;38261;54.090;13.382;2024-01-30T06:08:39;9.10;;;5.97;;
52320;SDS011;38261;54.090;13.382;2024-01-30T06:10:02;9.90;;;5.50;;
52320;SDS011;38261;54.090;13.382;2024-01-30T06:11:24;8.80;;;5.17;;
52320;SDS011;38261;54.090;13.382;2024-01-30T06:12:47;11.67;;;6.17;;
52320;SDS011;38261;54.090;13.382;2024-01-30T06:14:10;8.73;;;5.40;;
52320;SDS011;38261;54.090;13.382;2024-01-30T06:15:32;8.27;;;5.70;;
52320;SDS011;38261;54.090;13.382;2024-01-30T06:16:54;11.30;;;6.17;;
52320;SDS011;38261;54.090;13.382;2024-01-30T06:18:16;6.80;;;5.43;;
52320;SDS011;38261;54.090;13.382;2024-01-30T06:19:38;8.17;;;6.03;;
52320;SDS011;38261;54.090;13.382;2024-01-30T06:21:01;8.00;;;5.10;;
52320;SDS011;38261;54.090;13.382;2024-01-30T06:22:23;6.30;;;5.23;;
52320;SDS011;38261;54.090;13.382;2024-01-30T06:23:45;11.17;;;8.07;;
52320;SDS011;38261;54.090;13.382;2024-01-30T06:25:08;10.57;;;7.53;;
52320;SDS011;38261;54.090;13.382;2024-01-30T06:26:30;9.47;;;7.10;;
52320;SDS011;38261;54.090;13.382;2024-01-30T06:27:52;10.73;;;6.20;;
52320;SDS011;38261;54.090;13.382;2024-01-30T06:29:14;8.80;;;6.03;;
52320;SDS011;38261;54.090;13.382;2024-01-30T06:30:40;12.13;;;5.93;;
52320;SDS011;38261;54.090;13.382;2024-01-30T06:32:03;9.90;;;5.87;;
52320;SDS011;38261;54.090;13.382;2024-01-30T06:33:25;9.07;;;4.73;;
52320;SDS011;38261;54.090;13.382;2024-01-30T06:34:48;11.13;;;5.93;;
52320;SDS011;38261;54.090;13.382;2024-01-30T06:36:10;8.30;;;5.17;;
52320;SDS011;38261;54.090;13.382;2024-01-30T06:37:32;8.03;;;5.63;;
52320;SDS011;38261;54.090;13.382;2024-01-30T06:38:54;8.67;;;5.33;;
52320;SDS011;38261;54.090;13.382;2024-01-30T06:40:16;8.33;;;5.00;;
52320;SDS011;38261;54.090;13.382;2024-01-30T06:41:38;7.30;;;5.20;;
52320;SDS011;38261;54.090;13.382;2024-01-30T06:43:01;9.13;;;5.93;;
52320;SDS011;38261;54.090;13.382;2024-01-30T06:44:23;11.43;;;5.23;;
52320;SDS011;38261;54.090;13.382;2024-01-30T06:45:45;9.50;;;5.67;;
52320;SDS011;38261;54.090;13.382;2024-01-30T06:47:07;9.23;;;5.17;;
52320;SDS011;38261;54.090;13.382;2024-01-30T06:48:30;10.20;;;5.00;;
52320;SDS011;38261;54.090;13.382;2024-01-30T06:49:52;13.33;;;5.10;;
52320;SDS011;38261;54.090;13.382;2024-01-30T06:51:14;10.00;;;5.03;;
52320;SDS011;38261;54.090;13.382;2024-01-30T06:52:38;10.33;;;5.27;;
52320;SDS011;38261;54.090;13.382;2024-01-30T06:54:01;8.73;;;5.60;;
52320;SDS011;38261;54.090;13.382;2024-01-30T06:55:23;9.30;;;5.23;;
52320;SDS011;38261;54.090;13.382;2024-01-30T06:56:45;8.70;;;5.97;;
52320;SDS011;38261;54.090;13.382;2024-01-30T06:58:08;9.00;;;5.50;;
52320;SDS011;38261;54.090;13.382;2024-01-30T06:59:31;9.60;;;5.37;;
52320;SDS011;38261;54.090;13.382;2024-01-30T07:00:53;10.63;;;5.87;;
52320;SDS011;38261;54.090;13.382;2024-01-30T07:02:16;9.63;;;6.00;;
52320;SDS011;38261;54.090;13.382;2024-01-30T07:03:38;9.97;;;6.03;;
52320;SDS011;38261;54.090;13.382;2024-01-30T07:05:01;9.63;;;5.83;;
52320;SDS011;38261;54.090;13.382;2024-01-30T07:06:24;8.83;;;5.00;;
52320;SDS011;38261;54.090;13.382;2024-01-30T07:07:46;8.57;;;5.37;;
52320;SDS011;38261;54.090;13.382;2024-01-30T07:09:09;6.33;;;4.93;;
52320;SDS011;38261;54.090;13.382;2024-01-30T07:10:31;8.60;;;5.60;;
52320;SDS011;38261;54.090;13.382;2024-01-30T07:11:53;11.20;;;5.03;;
52320;SDS011;38261;54.090;13.382;2024-01-30T07:13:17;8.20;;;5.33;;
52320;SDS011;38261;54.090;13.382;2024-01-30T07:14:39;9.00;;;5.10;;
52320;SDS011;38261;54.090;13.382;2024-01-30T07:16:01;8.90;;;5.67;;
52320;SDS011;38261;54.090;13.382;2024-01-30T07:17:23;8.83;;;4.90;;
52320;SDS011;38261;54.090;13.382;2024-01-30T07:18:46;8.17;;;5.40;;
52320;SDS011;38261;54.090;13.382;2024-01-30T07:20:08;8.23;;;4.80;;
52320;SDS011;38261;54.090;13.382;2024-01-30T07:21:33;9.77;;;5.93;;
52320;SDS011;38261;54.090;13.382;2024-01-30T07:22:55;12.60;;;6.53;;
52320;SDS011;38261;54.090;13.382;2024-01-30T07:24:18;8.13;;;4.73;;
52320;SDS011;38261;54.090;13.382;2024-01-30T07:25:40;8.53;;;5.50;;
52320;SDS011;38261;54.090;13.382;2024-01-30T07:27:03;12.67;;;5.90;;
52320;SDS011;38261;54.090;13.382;2024-01-30T07:28:25;9.83;;;6.07;;
52320;SDS011;38261;54.090;13.382;2024-01-30T07:29:47;9.10;;;5.70;;
52320;SDS011;38261;54.090;13.382;2024-01-30T07:31:09;9.90;;;5.80;;
52320;SDS011;38261;54.090;13.382;2024-01-30T07:32:31;15.10;;;6.87;;
52320;SDS011;38261;54.090;13.382;2024-01-30T07:33:54;9.43;;;5.67;;
52320;SDS011;38261;54.090;13.382;2024-01-30T07:35:16;7.53;;;5.80;;
52320;SDS011;38261;54.090;13.382;2024-01-30T07:36:38;9.73;;;5.87;;
52320;SDS011;38261;54.090;13.382;2024-01-30T07:38:00;10.80;;;5.83;;
52320;SDS011;38261;54.090;13.382;2024-01-30T07:39:22;13.70;;;5.70;;
52320;SDS011;38261;54.090;13.382;2024-01-30T07:40:45;9.70;;;6.33;;
52320;SDS011;38261;54.090;13.382;2024-01-30T07:42:07;7.63;;;4.93;;
52320;SDS011;38261;54.090;13.382;2024-01-30T07:43:31;8.67;;;5.87;;
52320;SDS011;38261;54.090;13.382;2024-01-30T07:44:55;13.07;;;6.70;;
52320;SDS011;38261;54.090;13.382;2024-01-30T07:46:17;12.57;;;6.53;;
52320;SDS011;38261;54.090;13.382;2024-01-30T07:47:39;10.53;;;6.70;;
52320;SDS011;38261;54.090;13.382;2024-01-30T07:49:02;11.43;;;7.33;;
52320;SDS011;38261;54.090;13.382;2024-01-30T07:50:26;11.47;;;7.30;;
52320;SDS011;38261;54.090;13.382;2024-01-30T07:51:49;11.20;;;6.90;;
52320;SDS011;38261;54.090;13.382;2024-01-30T07:53:11;10.53;;;5.80;;
52320;SDS011;38261;54.090;13.382;2024-01-30T07:54:33;19.43;;;7.07;;
52320;SDS011;38261;54.090;13.382;2024-01-30T07:55:55;13.07;;;6.80;;
52320;SDS011;38261;54.090;13.382;2024-01-30T07:57:17;12.90;;;6.77;;
52320;SDS011;38261;54.090;13.382;2024-01-30T07:58:39;21.40;;;11.90;;
52320;SDS011;38261;54.090;13.382;2024-01-30T08:00:02;21.10;;;12.60;;
52320;SDS011;38261;54.090;13.382;2024-01-30T08:01:24;18.20;;;9.90;;
52320;SDS011;38261;54.090;13.382;2024-01-30T08:02:46;16.70;;;9.70;;
52320;SDS011;38261;54.090;13.382;2024-01-30T08:04:09;12.83;;;6.80;;
52320;SDS011;38261;54.090;13.382;2024-01-30T08:05:31;16.50;;;7.10;;
52320;SDS011;38261;54.090;13.382;2024-01-30T08:06:53;22.03;;;6.20;;
52320;SDS011;38261;54.090;13.382;2024-01-30T08:08:16;10.53;;;5.33;;